sensor_id;sensor_type;location;lat;lon;timestamp;P1;durP1;ratioP1;P2;durP2;ratioP2
46006;SDS011;31738;50.188;8.524;2022-09-03T00:02:39;1.40;;;0.98;;
46006;SDS011;31738;50.188;8.524;2022-09-03T00:13:33;1.42;;;0.85;;
46006;SDS011;31738;50.188;8.524;2022-09-03T00:16:04;1.90;;;1.10;;
46006;SDS011;31738;50.188;8.524;2022-09-03T00:18:36;1.40;;;0.88;;
46006;SDS011;31738;50.188;8.524;2022-09-03T00:21:16;3.92;;;0.90;;
46006;SDS011;31738;50.188;8.524;2022-09-03T00:23:48;2.35;;;0.93;;
46006;SDS011;31738;50.188;8.524;2022-09-03T00:26:21;6.18;;;1.10;;
46006;SDS011;31738;50.188;8.524;2022-09-03T00:29:06;4.10;;;1.08;;
46006;SDS011;31738;50.188;8.524;2022-09-03T00:31:44;2.75;;;1.10;;
46006;SDS011;31738;50.188;8.524;2022-09-03T00:36:59;1.52;;;1.00;;
46006;SDS011;31738;50.188;8.524;2022-09-03T00:39:26;1.10;;;0.90;;
46006;SDS011;31738;50.188;8.524;2022-09-03T00:50:22;2.05;;;1.10;;
46006;SDS011;31738;50.188;8.524;2022-09-03T00:53:14;1.63;;;0.90;;
46006;SDS011;31738;50.188;8.524;2022-09-03T01:00:51;3.83;;;1.00;;
46006;SDS011;31738;50.188;8.524;2022-09-03T01:03:38;1.98;;;0.75;;
46006;SDS011;31738;50.188;8.524;2022-09-03T01:06:22;1.05;;;0.80;;
46006;SDS011;31738;50.188;8.524;2022-09-03T01:09:11;3.92;;;0.90;;
46006;SDS011;31738;50.188;8.524;2022-09-03T01:12:00;0.90;;;0.90;;
46006;SDS011;31738;50.188;8.524;2022-09-03T01:17:20;0.88;;;0.88;;
46006;SDS011;31738;50.188;8.524;2022-09-03T01:25:48;2.42;;;1.10;;
46006;SDS011;31738;50.188;8.524;2022-09-03T01:37:10;3.33;;;1.23;;
46006;SDS011;31738;50.188;8.524;2022-09-03T01:40:00;1.00;;;0.90;;
46006;SDS011;31738;50.188;8.524;2022-09-03T01:42:38;1.27;;;1.00;;
46006;SDS011;31738;50.188;8.524;2022-09-03T01:48:29;3.22;;;1.05;;
46006;SDS011;31738;50.188;8.524;2022-09-03T01:51:17;1.20;;;1.00;;
46006;SDS011;31738;50.188;8.524;2022-09-03T01:59:27;1.35;;;0.80;;
46006;SDS011;31738;50.188;8.524;2022-09-03T02:02:01;1.15;;;0.82;;
46006;SDS011;31738;50.188;8.524;2022-09-03T02:04:30;2.65;;;1.10;;
46006;SDS011;31738;50.188;8.524;2022-09-03T02:06:56;3.00;;;1.00;;
46006;SDS011;31738;50.188;8.524;2022-09-03T02:09:24;2.08;;;1.25;;
46006;SDS011;31738;50.188;8.524;2022-09-03T02:11:55;2.03;;;1.13;;
46006;SDS011;31738;50.188;8.524;2022-09-03T02:14:28;1.77;;;0.90;;
46006;SDS011;31738;50.188;8.524;2022-09-03T02:16:54;2.58;;;1.00;;
46006;SDS011;31738;50.188;8.524;2022-09-03T02:19:25;1.30;;;0.98;;
46006;SDS011;31738;50.188;8.524;2022-09-03T02:21:53;2.47;;;0.98;;
46006;SDS011;31738;50.188;8.524;2022-09-03T02:24:20;2.83;;;1.23;;
46006;SDS011;31738;50.188;8.524;2022-09-03T02:26:46;1.92;;;1.02;;
46006;SDS011;31738;50.188;8.524;2022-09-03T02:29:13;2.10;;;1.08;;
46006;SDS011;31738;50.188;8.524;2022-09-03T02:31:40;1.30;;;1.00;;
46006;SDS011;31738;50.188;8.524;2022-09-03T02:34:05;3.45;;;1.00;;
46006;SDS011;31738;50.188;8.524;2022-09-03T02:36:31;1.70;;;0.98;;
46006;SDS011;31738;50.188;8.524;2022-09-03T02:38:59;6.72;;;1.58;;
46006;SDS011;31738;50.188;8.524;2022-09-03T02:45:30;3.47;;;0.82;;
46006;SDS011;31738;50.188;8.524;2022-09-03T02:47:57;1.27;;;0.80;;
46006;SDS011;31738;50.188;8.524;2022-09-03T02:50:24;1.52;;;1.13;;
46006;SDS011;31738;50.188;8.524;2022-09-03T02:52:50;2.35;;;1.00;;
46006;SDS011;31738;50.188;8.524;2022-09-03T02:55:16;1.27;;;0.90;;
46006;SDS011;31738;50.188;8.524;2022-09-03T02:57:43;1.67;;;1.10;;
46006;SDS011;31738;50.188;8.524;2022-09-03T03:00:10;2.50;;;1.13;;
46006;SDS011;31738;50.188;8.524;2022-09-03T03:02:36;2.22;;;1.10;;
46006;SDS011;31738;50.188;8.524;2022-09-03T03:05:02;3.67;;;1.13;;
46006;SDS011;31738;50.188;8.524;2022-09-03T03:07:29;3.28;;;1.20;;
46006;SDS011;31738;50.188;8.524;2022-09-03T03:09:58;1.17;;;1.08;;
46006;SDS011;31738;50.188;8.524;2022-09-03T03:12:24;1.35;;;1.10;;
46006;SDS011;31738;50.188;8.524;2022-09-03T03:14:49;2.42;;;1.23;;
46006;SDS011;31738;50.188;8.524;2022-09-03T03:17:15;1.70;;;1.05;;
46006;SDS011;31738;50.188;8.524;2022-09-03T03:19:40;3.45;;;1.08;;
46006;SDS011;31738;50.188;8.524;2022-09-03T03:22:06;3.72;;;1.25;;
46006;SDS011;31738;50.188;8.524;2022-09-03T03:24:31;1.10;;;0.85;;
46006;SDS011;31738;50.188;8.524;2022-09-03T03:26:57;1.17;;;1.00;;
46006;SDS011;31738;50.188;8.524;2022-09-03T03:29:23;4.00;;;1.20;;
46006;SDS011;31738;50.188;8.524;2022-09-03T03:31:49;1.75;;;0.90;;
46006;SDS011;31738;50.188;8.524;2022-09-03T03:34:15;1.02;;;0.90;;
46006;SDS011;31738;50.188;8.524;2022-09-03T03:36:41;0.93;;;0.80;;
46006;SDS011;31738;50.188;8.524;2022-09-03T03:39:06;2.63;;;1.10;;
46006;SDS011;31738;50.188;8.524;2022-09-03T03:41:32;1.58;;;0.90;;
46006;SDS011;31738;50.188;8.524;2022-09-03T03:44:00;2.25;;;1.13;;
46006;SDS011;31738;50.188;8.524;2022-09-03T03:46:28;1.10;;;1.00;;
46006;SDS011;31738;50.188;8.524;2022-09-03T03:48:58;1.00;;;0.88;;
46006;SDS011;31738;50.188;8.524;2022-09-03T03:51:24;1.05;;;0.93;;
46006;SDS011;31738;50.188;8.524;2022-09-03T03:53:52;1.20;;;1.00;;
46006;SDS011;31738;50.188;8.524;2022-09-03T03:56:19;2.88;;;1.00;;
46006;SDS011;31738;50.188;8.524;2022-09-03T03:58:45;3.70;;;1.00;;
46006;SDS011;31738;50.188;8.524;2022-09-03T04:01:13;3.70;;;1.15;;
46006;SDS011;31738;50.188;8.524;2022-09-03T04:03:42;2.78;;;1.08;;
46006;SDS011;31738;50.188;8.524;2022-09-03T04:06:09;3.50;;;1.00;;
46006;SDS011;31738;50.188;8.524;2022-09-03T04:08:37;1.25;;;1.10;;
46006;SDS011;31738;50.188;8.524;2022-09-03T04:11:05;2.97;;;1.00;;
46006;SDS011;31738;50.188;8.524;2022-09-03T04:13:33;1.30;;;0.95;;
46006;SDS011;31738;50.188;8.524;2022-09-03T04:16:01;2.90;;;1.05;;
46006;SDS011;31738;50.188;8.524;2022-09-03T04:18:28;2.00;;;1.00;;
46006;SDS011;31738;50.188;8.524;2022-09-03T04:20:58;1.25;;;1.05;;
46006;SDS011;31738;50.188;8.524;2022-09-03T04:23:29;1.40;;;1.17;;
46006;SDS011;31738;50.188;8.524;2022-09-03T04:25:55;1.52;;;1.00;;
46006;SDS011;31738;50.188;8.524;2022-09-03T04:28:21;1.85;;;1.13;;
46006;SDS011;31738;50.188;8.524;2022-09-03T04:30:46;1.52;;;1.17;;
46006;SDS011;31738;50.188;8.524;2022-09-03T04:33:12;4.18;;;1.13;;
46006;SDS011;31738;50.188;8.524;2022-09-03T04:35:37;2.25;;;1.00;;
46006;SDS011;31738;50.188;8.524;2022-09-03T04:38:05;2.05;;;1.10;;
46006;SDS011;31738;50.188;8.524;2022-09-03T04:40:30;1.20;;;1.05;;
46006;SDS011;31738;50.188;8.524;2022-09-03T04:42:56;1.73;;;1.17;;
46006;SDS011;31738;50.188;8.524;2022-09-03T04:45:23;1.25;;;0.90;;
46006;SDS011;31738;50.188;8.524;2022-09-03T04:47:56;2.25;;;0.90;;
46006;SDS011;31738;50.188;8.524;2022-09-03T04:50:25;3.75;;;1.05;;
46006;SDS011;31738;50.188;8.524;2022-09-03T04:53:01;1.95;;;0.98;;
46006;SDS011;31738;50.188;8.524;2022-09-03T04:55:34;2.95;;;1.10;;
46006;SDS011;31738;50.188;8.524;2022-09-03T04:58:01;1.00;;;0.80;;
46006;SDS011;31738;50.188;8.524;2022-09-03T05:00:26;1.52;;;1.25;;
46006;SDS011;31738;50.188;8.524;2022-09-03T05:02:52;2.30;;;1.42;;
46006;SDS011;31738;50.188;8.524;2022-09-03T05:05:17;3.35;;;1.20;;
46006;SDS011;31738;50.188;8.524;2022-09-03T05:07:43;2.60;;;1.23;;
46006;SDS011;31738;50.188;8.524;2022-09-03T05:10:09;2.20;;;1.30;;
46006;SDS011;31738;50.188;8.524;2022-09-03T05:12:45;1.73;;;1.10;;
46006;SDS011;31738;50.188;8.524;2022-09-03T05:15:12;1.60;;;1.00;;
46006;SDS011;31738;50.188;8.524;2022-09-03T05:17:38;1.92;;;1.05;;
46006;SDS011;31738;50.188;8.524;2022-09-03T05:20:04;1.17;;;1.00;;
46006;SDS011;31738;50.188;8.524;2022-09-03T05:22:34;2.85;;;1.35;;
46006;SDS011;31738;50.188;8.524;2022-09-03T05:25:00;1.17;;;1.00;;
46006;SDS011;31738;50.188;8.524;2022-09-03T05:27:25;1.30;;;1.15;;
46006;SDS011;31738;50.188;8.524;2022-09-03T05:29:51;1.70;;;1.08;;
46006;SDS011;31738;50.188;8.524;2022-09-03T05:32:16;1.42;;;1.00;;
46006;SDS011;31738;50.188;8.524;2022-09-03T05:34:42;2.08;;;1.20;;
46006;SDS011;31738;50.188;8.524;2022-09-03T05:37:08;1.48;;;1.02;;
46006;SDS011;31738;50.188;8.524;2022-09-03T05:39:34;1.73;;;0.90;;
46006;SDS011;31738;50.188;8.524;2022-09-03T05:41:59;2.25;;;1.20;;
46006;SDS011;31738;50.188;8.524;2022-09-03T05:44:25;2.10;;;1.05;;
46006;SDS011;31738;50.188;8.524;2022-09-03T05:46:50;1.58;;;1.08;;
46006;SDS011;31738;50.188;8.524;2022-09-03T05:49:16;3.03;;;1.20;;
46006;SDS011;31738;50.188;8.524;2022-09-03T05:51:42;1.23;;;0.80;;
46006;SDS011;31738;50.188;8.524;2022-09-03T05:54:08;3.35;;;1.00;;
46006;SDS011;31738;50.188;8.524;2022-09-03T05:56:35;1.90;;;1.25;;
46006;SDS011;31738;50.188;8.524;2022-09-03T05:59:04;1.75;;;1.20;;
46006;SDS011;31738;50.188;8.524;2022-09-03T06:01:34;4.07;;;1.08;;
46006;SDS011;31738;50.188;8.524;2022-09-03T06:06:29;2.95;;;1.10;;
46006;SDS011;31738;50.188;8.524;2022-09-03T06:08:57;2.25;;;1.10;;
46006;SDS011;31738;50.188;8.524;2022-09-03T06:11:25;1.67;;;1.35;;
46006;SDS011;31738;50.188;8.524;2022-09-03T06:13:55;1.77;;;1.10;;
46006;SDS011;31738;50.188;8.524;2022-09-03T06:16:21;2.83;;;1.40;;
46006;SDS011;31738;50.188;8.524;2022-09-03T06:18:47;1.48;;;1.02;;
46006;SDS011;31738;50.188;8.524;2022-09-03T06:21:13;3.05;;;1.42;;
46006;SDS011;31738;50.188;8.524;2022-09-03T06:23:39;2.35;;;1.30;;
46006;SDS011;31738;50.188;8.524;2022-09-03T06:26:09;1.40;;;1.13;;
46006;SDS011;31738;50.188;8.524;2022-09-03T06:28:38;2.78;;;1.50;;
46006;SDS011;31738;50.188;8.524;2022-09-03T06:31:06;3.00;;;1.48;;
46006;SDS011;31738;50.188;8.524;2022-09-03T06:33:33;2.30;;;1.40;;
46006;SDS011;31738;50.188;8.524;2022-09-03T06:36:01;2.15;;;1.50;;
46006;SDS011;31738;50.188;8.524;2022-09-03T06:38:29;3.03;;;1.20;;
46006;SDS011;31738;50.188;8.524;2022-09-03T06:40:57;1.40;;;1.00;;
46006;SDS011;31738;50.188;8.524;2022-09-03T06:43:27;2.22;;;1.30;;
46006;SDS011;31738;50.188;8.524;2022-09-03T06:45:57;4.97;;;1.45;;
46006;SDS011;31738;50.188;8.524;2022-09-03T06:48:23;1.73;;;1.38;;
46006;SDS011;31738;50.188;8.524;2022-09-03T06:50:56;2.05;;;1.20;;
46006;SDS011;31738;50.188;8.524;2022-09-03T06:53:22;2.38;;;1.33;;
46006;SDS011;31738;50.188;8.524;2022-09-03T06:55:56;1.55;;;1.33;;
46006;SDS011;31738;50.188;8.524;2022-09-03T06:58:23;5.47;;;1.35;;
46006;SDS011;31738;50.188;8.524;2022-09-03T07:00:50;1.70;;;1.33;;
46006;SDS011;31738;50.188;8.524;2022-09-03T07:03:19;3.08;;;1.40;;
46006;SDS011;31738;50.188;8.524;2022-09-03T07:05:47;1.88;;;1.48;;
46006;SDS011;31738;50.188;8.524;2022-09-03T07:08:12;1.50;;;1.08;;
46006;SDS011;31738;50.188;8.524;2022-09-03T07:10:38;2.75;;;1.63;;
46006;SDS011;31738;50.188;8.524;2022-09-03T07:13:04;4.97;;;1.63;;
46006;SDS011;31738;50.188;8.524;2022-09-03T07:15:32;3.38;;;1.50;;
46006;SDS011;31738;50.188;8.524;2022-09-03T07:17:58;3.63;;;1.40;;
46006;SDS011;31738;50.188;8.524;2022-09-03T07:20:23;3.72;;;1.63;;
46006;SDS011;31738;50.188;8.524;2022-09-03T07:25:33;2.22;;;1.35;;
46006;SDS011;31738;50.188;8.524;2022-09-03T07:27:59;2.40;;;1.35;;
46006;SDS011;31738;50.188;8.524;2022-09-03T07:30:25;2.03;;;1.13;;
46006;SDS011;31738;50.188;8.524;2022-09-03T07:32:53;1.98;;;1.20;;
46006;SDS011;31738;50.188;8.524;2022-09-03T07:35:19;5.10;;;1.40;;
46006;SDS011;31738;50.188;8.524;2022-09-03T07:37:45;3.08;;;1.40;;
46006;SDS011;31738;50.188;8.524;2022-09-03T07:40:10;5.68;;;1.40;;
46006;SDS011;31738;50.188;8.524;2022-09-03T07:42:36;3.20;;;1.35;;
46006;SDS011;31738;50.188;8.524;2022-09-03T07:45:05;2.35;;;1.38;;
46006;SDS011;31738;50.188;8.524;2022-09-03T07:47:48;2.75;;;1.30;;
46006;SDS011;31738;50.188;8.524;2022-09-03T07:50:14;2.55;;;1.60;;
46006;SDS011;31738;50.188;8.524;2022-09-03T07:52:40;1.85;;;1.33;;
46006;SDS011;31738;50.188;8.524;2022-09-03T07:55:06;3.58;;;1.48;;
46006;SDS011;31738;50.188;8.524;2022-09-03T07:57:33;2.13;;;1.60;;
46006;SDS011;31738;50.188;8.524;2022-09-03T07:59:59;2.25;;;1.45;;
46006;SDS011;31738;50.188;8.524;2022-09-03T08:02:35;3.00;;;1.73;;
46006;SDS011;31738;50.188;8.524;2022-09-03T08:05:01;2.60;;;1.67;;
46006;SDS011;31738;50.188;8.524;2022-09-03T08:07:35;5.80;;;1.73;;
46006;SDS011;31738;50.188;8.524;2022-09-03T08:10:01;3.35;;;1.60;;
46006;SDS011;31738;50.188;8.524;2022-09-03T08:12:27;6.45;;;1.65;;
46006;SDS011;31738;50.188;8.524;2022-09-03T08:14:55;2.83;;;1.50;;
46006;SDS011;31738;50.188;8.524;2022-09-03T08:17:23;3.38;;;1.38;;
46006;SDS011;31738;50.188;8.524;2022-09-03T08:19:50;5.13;;;2.00;;
46006;SDS011;31738;50.188;8.524;2022-09-03T08:22:20;2.20;;;1.80;;
46006;SDS011;31738;50.188;8.524;2022-09-03T08:24:46;2.08;;;1.70;;
46006;SDS011;31738;50.188;8.524;2022-09-03T08:27:12;2.83;;;1.90;;
46006;SDS011;31738;50.188;8.524;2022-09-03T08:29:49;3.53;;;1.90;;
46006;SDS011;31738;50.188;8.524;2022-09-03T08:32:24;3.78;;;1.70;;
46006;SDS011;31738;50.188;8.524;2022-09-03T08:34:52;4.38;;;2.00;;
46006;SDS011;31738;50.188;8.524;2022-09-03T08:37:20;2.92;;;1.80;;
46006;SDS011;31738;50.188;8.524;2022-09-03T08:39:51;4.30;;;1.92;;
46006;SDS011;31738;50.188;8.524;2022-09-03T08:45:16;4.07;;;1.90;;
46006;SDS011;31738;50.188;8.524;2022-09-03T08:47:47;5.35;;;2.30;;
46006;SDS011;31738;50.188;8.524;2022-09-03T08:50:33;4.18;;;2.00;;
46006;SDS011;31738;50.188;8.524;2022-09-03T08:56:42;2.95;;;2.10;;
46006;SDS011;31738;50.188;8.524;2022-09-03T08:59:17;4.50;;;2.30;;
46006;SDS011;31738;50.188;8.524;2022-09-03T09:07:36;3.28;;;2.13;;
46006;SDS011;31738;50.188;8.524;2022-09-03T09:10:27;3.22;;;2.10;;
46006;SDS011;31738;50.188;8.524;2022-09-03T09:21:26;3.08;;;2.15;;
46006;SDS011;31738;50.188;8.524;2022-09-03T09:24:00;2.78;;;2.28;;
46006;SDS011;31738;50.188;8.524;2022-09-03T09:26:28;3.38;;;2.10;;
46006;SDS011;31738;50.188;8.524;2022-09-03T09:29:00;2.80;;;2.30;;
46006;SDS011;31738;50.188;8.524;2022-09-03T09:31:34;3.10;;;2.50;;
46006;SDS011;31738;50.188;8.524;2022-09-03T09:34:10;2.17;;;1.95;;
46006;SDS011;31738;50.188;8.524;2022-09-03T09:37:09;3.92;;;2.60;;
46006;SDS011;31738;50.188;8.524;2022-09-03T09:39:52;5.22;;;2.10;;
46006;SDS011;31738;50.188;8.524;2022-09-03T09:42:25;4.50;;;2.85;;
46006;SDS011;31738;50.188;8.524;2022-09-03T09:44:54;3.15;;;2.40;;
46006;SDS011;31738;50.188;8.524;2022-09-03T09:47:27;4.75;;;2.20;;
46006;SDS011;31738;50.188;8.524;2022-09-03T09:49:59;2.70;;;2.40;;
46006;SDS011;31738;50.188;8.524;2022-09-03T09:52:28;3.85;;;2.00;;
46006;SDS011;31738;50.188;8.524;2022-09-03T09:55:06;3.40;;;2.50;;
46006;SDS011;31738;50.188;8.524;2022-09-03T09:57:34;5.03;;;2.50;;
46006;SDS011;31738;50.188;8.524;2022-09-03T10:00:11;3.50;;;2.47;;
46006;SDS011;31738;50.188;8.524;2022-09-03T10:02:45;4.13;;;2.30;;
46006;SDS011;31738;50.188;8.524;2022-09-03T10:05:13;4.18;;;2.40;;
46006;SDS011;31738;50.188;8.524;2022-09-03T10:07:53;4.70;;;2.50;;
46006;SDS011;31738;50.188;8.524;2022-09-03T10:10:26;4.43;;;2.60;;
46006;SDS011;31738;50.188;8.524;2022-09-03T10:13:31;4.60;;;2.90;;
46006;SDS011;31738;50.188;8.524;2022-09-03T10:16:24;2.92;;;2.38;;
46006;SDS011;31738;50.188;8.524;2022-09-03T10:19:05;3.30;;;2.80;;
46006;SDS011;31738;50.188;8.524;2022-09-03T10:27:17;5.82;;;3.28;;
46006;SDS011;31738;50.188;8.524;2022-09-03T10:29:46;3.85;;;2.60;;
46006;SDS011;31738;50.188;8.524;2022-09-03T10:35:01;3.70;;;2.55;;
46006;SDS011;31738;50.188;8.524;2022-09-03T10:44:16;6.22;;;2.80;;
46006;SDS011;31738;50.188;8.524;2022-09-03T10:56:08;4.68;;;2.80;;
46006;SDS011;31738;50.188;8.524;2022-09-03T11:01:51;5.28;;;3.80;;
46006;SDS011;31738;50.188;8.524;2022-09-03T11:04:32;4.68;;;3.15;;
46006;SDS011;31738;50.188;8.524;2022-09-03T11:07:10;5.18;;;2.80;;
46006;SDS011;31738;50.188;8.524;2022-09-03T11:09:47;3.83;;;2.88;;
46006;SDS011;31738;50.188;8.524;2022-09-03T11:12:31;6.90;;;3.00;;
46006;SDS011;31738;50.188;8.524;2022-09-03T11:17:52;4.53;;;3.33;;
46006;SDS011;31738;50.188;8.524;2022-09-03T11:20:23;4.60;;;3.10;;
46006;SDS011;31738;50.188;8.524;2022-09-03T11:22:59;4.72;;;3.00;;
46006;SDS011;31738;50.188;8.524;2022-09-03T11:25:31;5.20;;;3.70;;
46006;SDS011;31738;50.188;8.524;2022-09-03T11:28:22;4.30;;;3.38;;
46006;SDS011;31738;50.188;8.524;2022-09-03T11:31:16;3.75;;;2.58;;
46006;SDS011;31738;50.188;8.524;2022-09-03T11:33:44;3.90;;;3.42;;
46006;SDS011;31738;50.188;8.524;2022-09-03T11:36:16;4.45;;;3.28;;
46006;SDS011;31738;50.188;8.524;2022-09-03T11:38:52;5.38;;;3.38;;
46006;SDS011;31738;50.188;8.524;2022-09-03T11:43:46;5.65;;;3.33;;
46006;SDS011;31738;50.188;8.524;2022-09-03T11:46:13;4.95;;;3.03;;
46006;SDS011;31738;50.188;8.524;2022-09-03T11:48:56;4.97;;;3.25;;
46006;SDS011;31738;50.188;8.524;2022-09-03T11:51:35;4.72;;;3.40;;
46006;SDS011;31738;50.188;8.524;2022-09-03T11:56:36;3.45;;;2.90;;
46006;SDS011;31738;50.188;8.524;2022-09-03T12:01:38;4.20;;;2.90;;
46006;SDS011;31738;50.188;8.524;2022-09-03T12:04:14;3.63;;;2.70;;
46006;SDS011;31738;50.188;8.524;2022-09-03T12:26:25;4.75;;;3.15;;
46006;SDS011;31738;50.188;8.524;2022-09-03T12:28:55;3.97;;;2.70;;
46006;SDS011;31738;50.188;8.524;2022-09-03T12:31:26;3.63;;;3.00;;
46006;SDS011;31738;50.188;8.524;2022-09-03T12:33:59;4.22;;;2.58;;
46006;SDS011;31738;50.188;8.524;2022-09-03T12:36:35;3.47;;;2.72;;
46006;SDS011;31738;50.188;8.524;2022-09-03T12:47:13;3.20;;;2.53;;
46006;SDS011;31738;50.188;8.524;2022-09-03T12:49:43;4.80;;;3.20;;
46006;SDS011;31738;50.188;8.524;2022-09-03T12:52:14;3.50;;;2.88;;
46006;SDS011;31738;50.188;8.524;2022-09-03T12:55:03;6.93;;;2.75;;
46006;SDS011;31738;50.188;8.524;2022-09-03T12:57:39;4.43;;;2.42;;
46006;SDS011;31738;50.188;8.524;2022-09-03T13:00:13;5.13;;;2.78;;
46006;SDS011;31738;50.188;8.524;2022-09-03T13:05:13;4.43;;;2.17;;
46006;SDS011;31738;50.188;8.524;2022-09-03T13:07:44;2.97;;;2.25;;
46006;SDS011;31738;50.188;8.524;2022-09-03T13:10:22;5.05;;;3.08;;
46006;SDS011;31738;50.188;8.524;2022-09-03T13:12:51;6.30;;;3.17;;
46006;SDS011;31738;50.188;8.524;2022-09-03T13:15:22;4.43;;;2.63;;
46006;SDS011;31738;50.188;8.524;2022-09-03T13:18:07;4.60;;;2.40;;
46006;SDS011;31738;50.188;8.524;2022-09-03T13:21:13;6.13;;;2.60;;
46006;SDS011;31738;50.188;8.524;2022-09-03T13:29:27;5.05;;;2.97;;
46006;SDS011;31738;50.188;8.524;2022-09-03T13:34:49;3.05;;;2.60;;
46006;SDS011;31738;50.188;8.524;2022-09-03T13:37:24;4.53;;;3.30;;
46006;SDS011;31738;50.188;8.524;2022-09-03T13:39:57;4.82;;;4.10;;
46006;SDS011;31738;50.188;8.524;2022-09-03T13:45:04;5.07;;;2.97;;
46006;SDS011;31738;50.188;8.524;2022-09-03T13:47:45;3.88;;;2.80;;
46006;SDS011;31738;50.188;8.524;2022-09-03T13:50:42;3.53;;;3.20;;
46006;SDS011;31738;50.188;8.524;2022-09-03T13:53:39;4.25;;;2.80;;
46006;SDS011;31738;50.188;8.524;2022-09-03T13:56:15;6.70;;;3.75;;
46006;SDS011;31738;50.188;8.524;2022-09-03T13:59:13;6.28;;;3.30;;
46006;SDS011;31738;50.188;8.524;2022-09-03T14:04:42;4.03;;;2.80;;
46006;SDS011;31738;50.188;8.524;2022-09-03T14:07:23;2.78;;;2.50;;
46006;SDS011;31738;50.188;8.524;2022-09-03T14:10:37;2.90;;;2.40;;
46006;SDS011;31738;50.188;8.524;2022-09-03T14:13:05;3.28;;;2.10;;
46006;SDS011;31738;50.188;8.524;2022-09-03T14:15:55;2.88;;;2.17;;
46006;SDS011;31738;50.188;8.524;2022-09-03T14:18:45;2.50;;;2.08;;
46006;SDS011;31738;50.188;8.524;2022-09-03T14:21:23;3.90;;;2.53;;
46006;SDS011;31738;50.188;8.524;2022-09-03T14:24:07;2.85;;;2.33;;
46006;SDS011;31738;50.188;8.524;2022-09-03T14:29:14;2.40;;;2.20;;
46006;SDS011;31738;50.188;8.524;2022-09-03T14:40:21;2.65;;;2.22;;
46006;SDS011;31738;50.188;8.524;2022-09-03T14:45:49;2.55;;;2.20;;
46006;SDS011;31738;50.188;8.524;2022-09-03T15:02:20;2.58;;;2.20;;
46006;SDS011;31738;50.188;8.524;2022-09-03T15:05:10;1.85;;;1.65;;
46006;SDS011;31738;50.188;8.524;2022-09-03T15:07:53;1.85;;;1.50;;
46006;SDS011;31738;50.188;8.524;2022-09-03T15:10:31;3.35;;;1.77;;
46006;SDS011;31738;50.188;8.524;2022-09-03T15:13:41;1.90;;;1.50;;
46006;SDS011;31738;50.188;8.524;2022-09-03T15:16:13;4.53;;;1.80;;
46006;SDS011;31738;50.188;8.524;2022-09-03T15:24:27;2.30;;;2.10;;
46006;SDS011;31738;50.188;8.524;2022-09-03T15:29:50;2.63;;;1.73;;
46006;SDS011;31738;50.188;8.524;2022-09-03T15:32:56;2.00;;;1.67;;
46006;SDS011;31738;50.188;8.524;2022-09-03T15:35:31;2.17;;;1.88;;
46006;SDS011;31738;50.188;8.524;2022-09-03T15:38:20;3.25;;;2.38;;
46006;SDS011;31738;50.188;8.524;2022-09-03T15:41:02;3.00;;;1.90;;
46006;SDS011;31738;50.188;8.524;2022-09-03T15:43:33;3.08;;;1.98;;
46006;SDS011;31738;50.188;8.524;2022-09-03T15:46:04;2.78;;;1.95;;
46006;SDS011;31738;50.188;8.524;2022-09-03T15:51:48;3.35;;;1.70;;
46006;SDS011;31738;50.188;8.524;2022-09-03T15:57:31;2.55;;;1.80;;
46006;SDS011;31738;50.188;8.524;2022-09-03T16:00:18;2.45;;;1.90;;
46006;SDS011;31738;50.188;8.524;2022-09-03T16:02:54;3.92;;;1.95;;
46006;SDS011;31738;50.188;8.524;2022-09-03T16:05:42;1.60;;;1.50;;
46006;SDS011;31738;50.188;8.524;2022-09-03T16:13:54;2.00;;;1.70;;
46006;SDS011;31738;50.188;8.524;2022-09-03T16:19:17;1.95;;;1.67;;
46006;SDS011;31738;50.188;8.524;2022-09-03T16:21:50;4.07;;;1.80;;
46006;SDS011;31738;50.188;8.524;2022-09-03T16:24:23;2.72;;;2.00;;
46006;SDS011;31738;50.188;8.524;2022-09-03T16:38:33;3.13;;;1.77;;
46006;SDS011;31738;50.188;8.524;2022-09-03T16:41:19;2.83;;;1.90;;
46006;SDS011;31738;50.188;8.524;2022-09-03T16:43:54;2.20;;;1.80;;
46006;SDS011;31738;50.188;8.524;2022-09-03T16:46:35;1.90;;;1.80;;
46006;SDS011;31738;50.188;8.524;2022-09-03T17:07:30;3.05;;;2.08;;
46006;SDS011;31738;50.188;8.524;2022-09-03T17:20:44;2.58;;;2.35;;
46006;SDS011;31738;50.188;8.524;2022-09-03T17:23:24;3.70;;;2.25;;
46006;SDS011;31738;50.188;8.524;2022-09-03T17:31:47;2.50;;;2.00;;
46006;SDS011;31738;50.188;8.524;2022-09-03T17:34:40;2.63;;;1.50;;
46006;SDS011;31738;50.188;8.524;2022-09-03T17:43:15;1.65;;;1.50;;
46006;SDS011;31738;50.188;8.524;2022-09-03T17:48:57;4.03;;;1.67;;
46006;SDS011;31738;50.188;8.524;2022-09-03T17:54:17;1.70;;;1.38;;
46006;SDS011;31738;50.188;8.524;2022-09-03T17:59:14;1.60;;;1.48;;
46006;SDS011;31738;50.188;8.524;2022-09-03T18:01:55;2.03;;;1.52;;
46006;SDS011;31738;50.188;8.524;2022-09-03T18:04:44;2.45;;;1.30;;
46006;SDS011;31738;50.188;8.524;2022-09-03T18:07:22;2.42;;;1.60;;
46006;SDS011;31738;50.188;8.524;2022-09-03T18:12:48;2.00;;;1.77;;
46006;SDS011;31738;50.188;8.524;2022-09-03T18:15:24;1.95;;;1.63;;
46006;SDS011;31738;50.188;8.524;2022-09-03T18:17:53;1.95;;;1.70;;
46006;SDS011;31738;50.188;8.524;2022-09-03T18:20:24;2.90;;;2.13;;
46006;SDS011;31738;50.188;8.524;2022-09-03T18:23:26;1.83;;;1.70;;
46006;SDS011;31738;50.188;8.524;2022-09-03T18:26:18;3.28;;;1.90;;
46006;SDS011;31738;50.188;8.524;2022-09-03T18:29:14;3.08;;;2.05;;
46006;SDS011;31738;50.188;8.524;2022-09-03T18:32:11;5.75;;;2.90;;
46006;SDS011;31738;50.188;8.524;2022-09-03T18:34:55;4.03;;;2.63;;
46006;SDS011;31738;50.188;8.524;2022-09-03T18:37:39;3.85;;;2.40;;
46006;SDS011;31738;50.188;8.524;2022-09-03T18:40:30;2.38;;;2.03;;
46006;SDS011;31738;50.188;8.524;2022-09-03T18:59:42;1.55;;;0.90;;
46006;SDS011;31738;50.188;8.524;2022-09-03T19:02:43;1.48;;;1.00;;
46006;SDS011;31738;50.188;8.524;2022-09-03T19:05:55;1.02;;;0.93;;
46006;SDS011;31738;50.188;8.524;2022-09-03T19:15:13;1.73;;;0.98;;
46006;SDS011;31738;50.188;8.524;2022-09-03T19:18:09;1.85;;;0.90;;
46006;SDS011;31738;50.188;8.524;2022-09-03T19:24:22;2.67;;;1.15;;
46006;SDS011;31738;50.188;8.524;2022-09-03T19:43:04;1.10;;;0.95;;
46006;SDS011;31738;50.188;8.524;2022-09-03T19:46:25;2.60;;;1.10;;
46006;SDS011;31738;50.188;8.524;2022-09-03T19:49:22;1.67;;;1.15;;
46006;SDS011;31738;50.188;8.524;2022-09-03T19:55:17;1.88;;;0.93;;
46006;SDS011;31738;50.188;8.524;2022-09-03T19:58:07;2.17;;;1.40;;
46006;SDS011;31738;50.188;8.524;2022-09-03T20:00:53;2.00;;;1.05;;
46006;SDS011;31738;50.188;8.524;2022-09-03T20:03:37;5.20;;;1.10;;
46006;SDS011;31738;50.188;8.524;2022-09-03T20:06:21;2.00;;;1.27;;
46006;SDS011;31738;50.188;8.524;2022-09-03T20:09:08;1.70;;;1.02;;
46006;SDS011;31738;50.188;8.524;2022-09-03T20:11:53;2.08;;;1.30;;
46006;SDS011;31738;50.188;8.524;2022-09-03T20:14:22;1.30;;;1.00;;
46006;SDS011;31738;50.188;8.524;2022-09-03T20:16:57;1.73;;;1.10;;
46006;SDS011;31738;50.188;8.524;2022-09-03T20:25:22;3.33;;;1.20;;
46006;SDS011;31738;50.188;8.524;2022-09-03T20:30:20;1.42;;;1.25;;
46006;SDS011;31738;50.188;8.524;2022-09-03T20:37:52;2.08;;;1.42;;
46006;SDS011;31738;50.188;8.524;2022-09-03T20:40:26;1.80;;;1.20;;
46006;SDS011;31738;50.188;8.524;2022-09-03T20:45:51;1.48;;;1.17;;
46006;SDS011;31738;50.188;8.524;2022-09-03T20:51:34;1.80;;;1.30;;
46006;SDS011;31738;50.188;8.524;2022-09-03T20:56:43;1.80;;;1.20;;
46006;SDS011;31738;50.188;8.524;2022-09-03T21:02:10;3.05;;;1.02;;
46006;SDS011;31738;50.188;8.524;2022-09-03T21:10:04;1.30;;;0.85;;
46006;SDS011;31738;50.188;8.524;2022-09-03T21:15:23;1.10;;;0.95;;
46006;SDS011;31738;50.188;8.524;2022-09-03T21:17:58;0.90;;;0.73;;
46006;SDS011;31738;50.188;8.524;2022-09-03T21:26:07;1.40;;;0.57;;
46006;SDS011;31738;50.188;8.524;2022-09-03T21:28:36;0.95;;;0.40;;
46006;SDS011;31738;50.188;8.524;2022-09-03T21:34:06;0.60;;;0.50;;